sensor_id;sensor_type;location;lat;lon;timestamp;P1;durP1;ratioP1;P2;durP2;ratioP2
12603;SDS011;6367;52.508;13.284;2022-10-22T00:01:11;13.07;;;11.77;;
12603;SDS011;6367;52.508;13.284;2022-10-22T00:03:37;14.30;;;12.90;;
12603;SDS011;6367;52.508;13.284;2022-10-22T00:06:02;14.23;;;12.73;;
12603;SDS011;6367;52.508;13.284;2022-10-22T00:08:28;14.83;;;13.37;;
12603;SDS011;6367;52.508;13.284;2022-10-22T00:10:54;15.50;;;13.80;;
12603;SDS011;6367;52.508;13.284;2022-10-22T00:13:19;12.80;;;11.50;;
12603;SDS011;6367;52.508;13.284;2022-10-22T00:15:45;13.73;;;12.43;;
12603;SDS011;6367;52.508;13.284;2022-10-22T00:18:10;12.57;;;11.33;;
12603;SDS011;6367;52.508;13.284;2022-10-22T00:20:36;13.20;;;12.00;;
12603;SDS011;6367;52.508;13.284;2022-10-22T00:23:01;14.63;;;12.50;;
12603;SDS011;6367;52.508;13.284;2022-10-22T00:25:27;13.53;;;12.33;;
12603;SDS011;6367;52.508;13.284;2022-10-22T00:27:53;13.27;;;11.97;;
12603;SDS011;6367;52.508;13.284;2022-10-22T00:30:18;13.83;;;12.43;;
12603;SDS011;6367;52.508;13.284;2022-10-22T00:32:44;12.53;;;11.20;;
12603;SDS011;6367;52.508;13.284;2022-10-22T00:35:09;15.57;;;12.10;;
12603;SDS011;6367;52.508;13.284;2022-10-22T00:37:35;12.57;;;11.37;;
12603;SDS011;6367;52.508;13.284;2022-10-22T00:40:01;16.43;;;12.80;;
12603;SDS011;6367;52.508;13.284;2022-10-22T00:42:28;13.90;;;12.57;;
12603;SDS011;6367;52.508;13.284;2022-10-22T00:47:39;12.90;;;11.67;;
12603;SDS011;6367;52.508;13.284;2022-10-22T00:50:08;13.70;;;12.30;;
12603;SDS011;6367;52.508;13.284;2022-10-22T00:52:41;11.90;;;10.70;;
12603;SDS011;6367;52.508;13.284;2022-10-22T00:55:07;13.23;;;11.80;;
12603;SDS011;6367;52.508;13.284;2022-10-22T00:57:33;11.87;;;10.80;;
12603;SDS011;6367;52.508;13.284;2022-10-22T01:00:00;13.23;;;12.03;;
12603;SDS011;6367;52.508;13.284;2022-10-22T01:02:26;14.07;;;12.10;;
12603;SDS011;6367;52.508;13.284;2022-10-22T01:04:51;12.47;;;11.27;;
12603;SDS011;6367;52.508;13.284;2022-10-22T01:07:18;15.37;;;13.80;;
12603;SDS011;6367;52.508;13.284;2022-10-22T01:09:55;14.70;;;13.20;;
12603;SDS011;6367;52.508;13.284;2022-10-22T01:12:43;16.13;;;14.53;;
12603;SDS011;6367;52.508;13.284;2022-10-22T01:18:03;13.50;;;12.10;;
12603;SDS011;6367;52.508;13.284;2022-10-22T01:21:32;15.33;;;13.80;;
12603;SDS011;6367;52.508;13.284;2022-10-22T01:26:59;14.00;;;12.50;;
12603;SDS011;6367;52.508;13.284;2022-10-22T01:29:46;13.70;;;12.40;;
12603;SDS011;6367;52.508;13.284;2022-10-22T01:32:16;15.10;;;13.47;;
12603;SDS011;6367;52.508;13.284;2022-10-22T01:34:49;13.07;;;11.80;;
12603;SDS011;6367;52.508;13.284;2022-10-22T01:37:20;14.30;;;12.90;;
12603;SDS011;6367;52.508;13.284;2022-10-22T01:39:48;13.63;;;12.23;;
12603;SDS011;6367;52.508;13.284;2022-10-22T01:42:15;15.90;;;12.93;;
12603;SDS011;6367;52.508;13.284;2022-10-22T01:44:41;15.90;;;14.20;;
12603;SDS011;6367;52.508;13.284;2022-10-22T01:47:13;15.93;;;14.20;;
12603;SDS011;6367;52.508;13.284;2022-10-22T01:50:13;14.23;;;12.00;;
12603;SDS011;6367;52.508;13.284;2022-10-22T01:53:18;13.97;;;12.60;;
12603;SDS011;6367;52.508;13.284;2022-10-22T02:01:58;12.40;;;11.13;;
12603;SDS011;6367;52.508;13.284;2022-10-22T02:04:40;13.00;;;11.70;;
12603;SDS011;6367;52.508;13.284;2022-10-22T02:07:11;13.00;;;11.80;;
12603;SDS011;6367;52.508;13.284;2022-10-22T02:09:39;15.67;;;13.43;;
12603;SDS011;6367;52.508;13.284;2022-10-22T02:12:07;14.93;;;13.43;;
12603;SDS011;6367;52.508;13.284;2022-10-22T02:14:34;15.30;;;13.80;;
12603;SDS011;6367;52.508;13.284;2022-10-22T02:17:03;15.27;;;13.30;;
12603;SDS011;6367;52.508;13.284;2022-10-22T02:19:38;15.27;;;13.27;;
12603;SDS011;6367;52.508;13.284;2022-10-22T02:22:08;15.47;;;12.70;;
12603;SDS011;6367;52.508;13.284;2022-10-22T02:24:34;14.90;;;13.37;;
12603;SDS011;6367;52.508;13.284;2022-10-22T02:27:01;16.13;;;13.03;;
12603;SDS011;6367;52.508;13.284;2022-10-22T02:29:48;15.00;;;12.77;;
12603;SDS011;6367;52.508;13.284;2022-10-22T02:32:20;14.73;;;13.23;;
12603;SDS011;6367;52.508;13.284;2022-10-22T02:34:50;15.47;;;13.93;;
12603;SDS011;6367;52.508;13.284;2022-10-22T02:37:17;12.30;;;11.00;;
12603;SDS011;6367;52.508;13.284;2022-10-22T02:39:43;14.23;;;12.73;;
12603;SDS011;6367;52.508;13.284;2022-10-22T02:42:09;14.33;;;12.83;;
12603;SDS011;6367;52.508;13.284;2022-10-22T02:44:36;13.87;;;12.47;;
12603;SDS011;6367;52.508;13.284;2022-10-22T02:47:02;13.77;;;11.93;;
12603;SDS011;6367;52.508;13.284;2022-10-22T02:49:28;15.37;;;13.33;;
12603;SDS011;6367;52.508;13.284;2022-10-22T02:51:53;13.63;;;12.23;;
12603;SDS011;6367;52.508;13.284;2022-10-22T02:54:19;13.50;;;11.80;;
12603;SDS011;6367;52.508;13.284;2022-10-22T02:56:45;12.20;;;11.00;;
12603;SDS011;6367;52.508;13.284;2022-10-22T02:59:10;14.77;;;13.37;;
12603;SDS011;6367;52.508;13.284;2022-10-22T03:01:36;13.60;;;12.27;;
12603;SDS011;6367;52.508;13.284;2022-10-22T03:04:01;13.10;;;11.23;;
12603;SDS011;6367;52.508;13.284;2022-10-22T03:06:27;14.30;;;12.37;;
12603;SDS011;6367;52.508;13.284;2022-10-22T03:08:53;13.50;;;12.10;;
12603;SDS011;6367;52.508;13.284;2022-10-22T03:11:18;12.70;;;11.40;;
12603;SDS011;6367;52.508;13.284;2022-10-22T03:13:44;12.63;;;11.33;;
12603;SDS011;6367;52.508;13.284;2022-10-22T03:16:10;13.53;;;12.00;;
12603;SDS011;6367;52.508;13.284;2022-10-22T03:18:35;14.27;;;12.77;;
12603;SDS011;6367;52.508;13.284;2022-10-22T03:23:48;13.67;;;12.37;;
12603;SDS011;6367;52.508;13.284;2022-10-22T03:26:14;14.30;;;12.80;;
12603;SDS011;6367;52.508;13.284;2022-10-22T03:28:39;12.93;;;11.53;;
12603;SDS011;6367;52.508;13.284;2022-10-22T03:31:06;13.50;;;11.70;;
12603;SDS011;6367;52.508;13.284;2022-10-22T03:33:32;13.93;;;12.00;;
12603;SDS011;6367;52.508;13.284;2022-10-22T03:35:57;15.20;;;12.70;;
12603;SDS011;6367;52.508;13.284;2022-10-22T03:38:24;14.37;;;12.87;;
12603;SDS011;6367;52.508;13.284;2022-10-22T03:40:50;13.17;;;11.87;;
12603;SDS011;6367;52.508;13.284;2022-10-22T03:43:16;12.70;;;11.40;;
12603;SDS011;6367;52.508;13.284;2022-10-22T03:45:41;12.73;;;11.23;;
12603;SDS011;6367;52.508;13.284;2022-10-22T03:48:07;14.53;;;13.13;;
12603;SDS011;6367;52.508;13.284;2022-10-22T03:50:33;13.27;;;11.97;;
12603;SDS011;6367;52.508;13.284;2022-10-22T03:52:58;12.70;;;11.50;;
12603;SDS011;6367;52.508;13.284;2022-10-22T03:55:24;13.00;;;11.47;;
12603;SDS011;6367;52.508;13.284;2022-10-22T03:57:49;12.87;;;11.53;;
12603;SDS011;6367;52.508;13.284;2022-10-22T04:00:15;15.17;;;12.57;;
12603;SDS011;6367;52.508;13.284;2022-10-22T04:02:41;14.67;;;13.27;;
12603;SDS011;6367;52.508;13.284;2022-10-22T04:05:07;13.23;;;11.83;;
12603;SDS011;6367;52.508;13.284;2022-10-22T04:07:32;13.23;;;11.93;;
12603;SDS011;6367;52.508;13.284;2022-10-22T04:09:58;14.27;;;12.77;;
12603;SDS011;6367;52.508;13.284;2022-10-22T04:12:24;17.30;;;12.90;;
12603;SDS011;6367;52.508;13.284;2022-10-22T04:14:49;13.73;;;12.17;;
12603;SDS011;6367;52.508;13.284;2022-10-22T04:17:15;18.10;;;13.77;;
12603;SDS011;6367;52.508;13.284;2022-10-22T04:19:41;13.70;;;12.27;;
12603;SDS011;6367;52.508;13.284;2022-10-22T04:22:06;13.37;;;12.07;;
12603;SDS011;6367;52.508;13.284;2022-10-22T04:24:32;14.23;;;12.77;;
12603;SDS011;6367;52.508;13.284;2022-10-22T04:26:57;13.73;;;12.33;;
12603;SDS011;6367;52.508;13.284;2022-10-22T04:29:23;13.93;;;11.77;;
12603;SDS011;6367;52.508;13.284;2022-10-22T04:31:49;13.80;;;12.37;;
12603;SDS011;6367;52.508;13.284;2022-10-22T04:34:15;13.90;;;12.47;;
12603;SDS011;6367;52.508;13.284;2022-10-22T04:36:41;14.03;;;12.00;;
12603;SDS011;6367;52.508;13.284;2022-10-22T04:39:06;15.37;;;13.00;;
12603;SDS011;6367;52.508;13.284;2022-10-22T04:41:33;14.43;;;12.93;;
12603;SDS011;6367;52.508;13.284;2022-10-22T04:44:00;12.60;;;11.40;;
12603;SDS011;6367;52.508;13.284;2022-10-22T04:46:27;16.13;;;14.20;;
12603;SDS011;6367;52.508;13.284;2022-10-22T04:48:54;15.47;;;13.13;;
12603;SDS011;6367;52.508;13.284;2022-10-22T04:51:21;13.63;;;11.73;;
12603;SDS011;6367;52.508;13.284;2022-10-22T04:53:48;13.23;;;11.83;;
12603;SDS011;6367;52.508;13.284;2022-10-22T04:56:15;12.43;;;11.27;;
12603;SDS011;6367;52.508;13.284;2022-10-22T04:58:45;12.47;;;11.17;;
12603;SDS011;6367;52.508;13.284;2022-10-22T05:01:26;12.77;;;11.47;;
12603;SDS011;6367;52.508;13.284;2022-10-22T05:03:53;12.77;;;11.23;;
12603;SDS011;6367;52.508;13.284;2022-10-22T05:06:20;11.70;;;10.50;;
12603;SDS011;6367;52.508;13.284;2022-10-22T05:08:47;13.37;;;12.07;;
12603;SDS011;6367;52.508;13.284;2022-10-22T05:11:16;14.17;;;12.67;;
12603;SDS011;6367;52.508;13.284;2022-10-22T05:13:44;14.07;;;12.13;;
12603;SDS011;6367;52.508;13.284;2022-10-22T05:16:10;14.23;;;12.83;;
12603;SDS011;6367;52.508;13.284;2022-10-22T05:18:36;14.00;;;12.57;;
12603;SDS011;6367;52.508;13.284;2022-10-22T05:21:06;14.43;;;12.53;;
12603;SDS011;6367;52.508;13.284;2022-10-22T05:23:34;14.00;;;12.23;;
12603;SDS011;6367;52.508;13.284;2022-10-22T05:26:03;12.53;;;11.23;;
12603;SDS011;6367;52.508;13.284;2022-10-22T05:28:29;13.33;;;12.03;;
12603;SDS011;6367;52.508;13.284;2022-10-22T05:30:56;12.10;;;10.93;;
12603;SDS011;6367;52.508;13.284;2022-10-22T05:33:23;13.40;;;11.23;;
12603;SDS011;6367;52.508;13.284;2022-10-22T05:35:49;14.63;;;13.13;;
12603;SDS011;6367;52.508;13.284;2022-10-22T05:38:15;15.27;;;13.00;;
12603;SDS011;6367;52.508;13.284;2022-10-22T05:40:41;14.07;;;12.57;;
12603;SDS011;6367;52.508;13.284;2022-10-22T05:43:07;14.47;;;12.63;;
12603;SDS011;6367;52.508;13.284;2022-10-22T05:45:36;14.43;;;12.13;;
12603;SDS011;6367;52.508;13.284;2022-10-22T05:48:02;14.33;;;12.83;;
12603;SDS011;6367;52.508;13.284;2022-10-22T05:50:28;15.20;;;12.70;;
12603;SDS011;6367;52.508;13.284;2022-10-22T05:52:54;15.23;;;13.30;;
12603;SDS011;6367;52.508;13.284;2022-10-22T05:55:19;12.90;;;11.60;;
12603;SDS011;6367;52.508;13.284;2022-10-22T05:57:45;13.40;;;12.00;;
12603;SDS011;6367;52.508;13.284;2022-10-22T06:00:10;15.30;;;12.80;;
12603;SDS011;6367;52.508;13.284;2022-10-22T06:02:36;12.87;;;11.50;;
12603;SDS011;6367;52.508;13.284;2022-10-22T06:05:02;12.20;;;10.77;;
12603;SDS011;6367;52.508;13.284;2022-10-22T06:07:28;12.90;;;11.33;;
12603;SDS011;6367;52.508;13.284;2022-10-22T06:09:54;11.43;;;9.90;;
12603;SDS011;6367;52.508;13.284;2022-10-22T06:12:19;15.53;;;11.87;;
12603;SDS011;6367;52.508;13.284;2022-10-22T06:14:45;13.97;;;11.63;;
12603;SDS011;6367;52.508;13.284;2022-10-22T06:17:11;13.47;;;12.00;;
12603;SDS011;6367;52.508;13.284;2022-10-22T06:19:37;13.53;;;12.13;;
12603;SDS011;6367;52.508;13.284;2022-10-22T06:22:03;14.57;;;12.53;;
12603;SDS011;6367;52.508;13.284;2022-10-22T06:24:29;14.33;;;11.77;;
12603;SDS011;6367;52.508;13.284;2022-10-22T06:26:55;18.10;;;13.40;;
12603;SDS011;6367;52.508;13.284;2022-10-22T06:29:20;16.77;;;13.27;;
12603;SDS011;6367;52.508;13.284;2022-10-22T06:31:46;14.50;;;13.00;;
12603;SDS011;6367;52.508;13.284;2022-10-22T06:34:12;15.13;;;12.23;;
12603;SDS011;6367;52.508;13.284;2022-10-22T06:36:39;11.23;;;10.13;;
12603;SDS011;6367;52.508;13.284;2022-10-22T06:39:06;13.77;;;12.27;;
12603;SDS011;6367;52.508;13.284;2022-10-22T06:41:34;12.93;;;11.60;;
12603;SDS011;6367;52.508;13.284;2022-10-22T06:44:00;13.40;;;12.00;;
12603;SDS011;6367;52.508;13.284;2022-10-22T06:46:26;14.93;;;12.73;;
12603;SDS011;6367;52.508;13.284;2022-10-22T06:48:55;12.40;;;11.10;;
12603;SDS011;6367;52.508;13.284;2022-10-22T06:51:26;12.70;;;11.40;;
12603;SDS011;6367;52.508;13.284;2022-10-22T06:53:52;12.23;;;11.13;;
12603;SDS011;6367;52.508;13.284;2022-10-22T06:56:20;11.17;;;9.97;;
12603;SDS011;6367;52.508;13.284;2022-10-22T06:58:47;11.40;;;10.30;;
12603;SDS011;6367;52.508;13.284;2022-10-22T07:01:15;11.80;;;10.60;;
12603;SDS011;6367;52.508;13.284;2022-10-22T07:03:41;13.23;;;11.87;;
12603;SDS011;6367;52.508;13.284;2022-10-22T07:06:08;12.20;;;10.37;;
12603;SDS011;6367;52.508;13.284;2022-10-22T07:08:36;14.30;;;12.10;;
12603;SDS011;6367;52.508;13.284;2022-10-22T07:11:06;13.90;;;11.77;;
12603;SDS011;6367;52.508;13.284;2022-10-22T07:13:36;11.50;;;10.40;;
12603;SDS011;6367;52.508;13.284;2022-10-22T07:16:02;11.07;;;9.97;;
12603;SDS011;6367;52.508;13.284;2022-10-22T07:18:29;9.80;;;8.90;;
12603;SDS011;6367;52.508;13.284;2022-10-22T07:20:55;12.10;;;10.80;;
12603;SDS011;6367;52.508;13.284;2022-10-22T07:23:20;14.50;;;12.53;;
12603;SDS011;6367;52.508;13.284;2022-10-22T07:25:46;12.50;;;11.20;;
12603;SDS011;6367;52.508;13.284;2022-10-22T07:28:12;13.37;;;10.80;;
12603;SDS011;6367;52.508;13.284;2022-10-22T07:30:38;12.27;;;11.00;;
12603;SDS011;6367;52.508;13.284;2022-10-22T07:33:04;12.20;;;11.00;;
12603;SDS011;6367;52.508;13.284;2022-10-22T07:35:30;14.57;;;12.10;;
12603;SDS011;6367;52.508;13.284;2022-10-22T07:37:56;12.57;;;11.27;;
12603;SDS011;6367;52.508;13.284;2022-10-22T07:40:22;12.50;;;11.20;;
12603;SDS011;6367;52.508;13.284;2022-10-22T07:42:47;11.43;;;10.30;;
12603;SDS011;6367;52.508;13.284;2022-10-22T07:45:13;10.33;;;9.17;;
12603;SDS011;6367;52.508;13.284;2022-10-22T07:47:39;12.20;;;10.87;;
12603;SDS011;6367;52.508;13.284;2022-10-22T07:50:05;11.90;;;10.70;;
12603;SDS011;6367;52.508;13.284;2022-10-22T07:52:32;10.60;;;9.50;;
12603;SDS011;6367;52.508;13.284;2022-10-22T07:54:57;15.80;;;10.50;;
12603;SDS011;6367;52.508;13.284;2022-10-22T07:57:23;11.17;;;10.07;;
12603;SDS011;6367;52.508;13.284;2022-10-22T07:59:49;11.03;;;9.80;;
12603;SDS011;6367;52.508;13.284;2022-10-22T08:02:15;13.17;;;10.57;;
12603;SDS011;6367;52.508;13.284;2022-10-22T08:04:40;13.60;;;12.20;;
12603;SDS011;6367;52.508;13.284;2022-10-22T08:07:06;12.03;;;10.83;;
12603;SDS011;6367;52.508;13.284;2022-10-22T08:09:32;12.70;;;11.53;;
12603;SDS011;6367;52.508;13.284;2022-10-22T08:11:58;12.50;;;11.20;;
12603;SDS011;6367;52.508;13.284;2022-10-22T08:14:23;12.03;;;10.83;;
12603;SDS011;6367;52.508;13.284;2022-10-22T08:16:49;12.23;;;11.07;;
12603;SDS011;6367;52.508;13.284;2022-10-22T08:19:14;10.20;;;9.20;;
12603;SDS011;6367;52.508;13.284;2022-10-22T08:21:45;11.07;;;10.07;;
12603;SDS011;6367;52.508;13.284;2022-10-22T08:24:11;12.57;;;11.37;;
12603;SDS011;6367;52.508;13.284;2022-10-22T08:26:37;11.40;;;10.20;;
12603;SDS011;6367;52.508;13.284;2022-10-22T08:29:03;11.47;;;10.37;;
12603;SDS011;6367;52.508;13.284;2022-10-22T08:31:28;12.43;;;11.23;;
12603;SDS011;6367;52.508;13.284;2022-10-22T08:33:54;11.33;;;10.23;;
12603;SDS011;6367;52.508;13.284;2022-10-22T08:36:20;13.30;;;11.73;;
12603;SDS011;6367;52.508;13.284;2022-10-22T08:38:45;11.53;;;10.43;;
12603;SDS011;6367;52.508;13.284;2022-10-22T08:41:12;11.00;;;10.00;;
12603;SDS011;6367;52.508;13.284;2022-10-22T08:49:26;15.43;;;11.70;;
12603;SDS011;6367;52.508;13.284;2022-10-22T08:51:56;12.83;;;10.83;;
12603;SDS011;6367;52.508;13.284;2022-10-22T08:59:31;11.13;;;10.00;;
12603;SDS011;6367;52.508;13.284;2022-10-22T09:02:01;10.97;;;9.87;;
12603;SDS011;6367;52.508;13.284;2022-10-22T09:04:39;10.87;;;9.87;;
12603;SDS011;6367;52.508;13.284;2022-10-22T09:07:12;11.43;;;10.23;;
12603;SDS011;6367;52.508;13.284;2022-10-22T09:09:39;10.70;;;9.60;;
12603;SDS011;6367;52.508;13.284;2022-10-22T09:12:12;10.30;;;9.40;;
12603;SDS011;6367;52.508;13.284;2022-10-22T09:14:40;12.63;;;9.87;;
12603;SDS011;6367;52.508;13.284;2022-10-22T09:17:18;9.90;;;8.97;;
12603;SDS011;6367;52.508;13.284;2022-10-22T09:19:53;11.90;;;10.33;;
12603;SDS011;6367;52.508;13.284;2022-10-22T09:22:31;10.83;;;9.70;;
12603;SDS011;6367;52.508;13.284;2022-10-22T09:25:16;10.80;;;9.80;;
12603;SDS011;6367;52.508;13.284;2022-10-22T09:27:51;11.70;;;10.60;;
12603;SDS011;6367;52.508;13.284;2022-10-22T09:30:22;13.13;;;11.83;;
12603;SDS011;6367;52.508;13.284;2022-10-22T09:32:51;11.50;;;10.10;;
12603;SDS011;6367;52.508;13.284;2022-10-22T09:35:25;13.27;;;10.37;;
12603;SDS011;6367;52.508;13.284;2022-10-22T09:37:52;10.70;;;9.60;;
12603;SDS011;6367;52.508;13.284;2022-10-22T09:40:19;10.80;;;9.70;;
12603;SDS011;6367;52.508;13.284;2022-10-22T09:42:46;11.67;;;10.57;;
12603;SDS011;6367;52.508;13.284;2022-10-22T09:45:20;10.53;;;9.53;;
12603;SDS011;6367;52.508;13.284;2022-10-22T09:47:49;11.53;;;10.43;;
12603;SDS011;6367;52.508;13.284;2022-10-22T09:50:27;12.23;;;10.70;;
12603;SDS011;6367;52.508;13.284;2022-10-22T09:53:21;12.00;;;10.90;;
12603;SDS011;6367;52.508;13.284;2022-10-22T09:55:52;11.20;;;10.00;;
12603;SDS011;6367;52.508;13.284;2022-10-22T09:58:20;10.70;;;9.70;;
12603;SDS011;6367;52.508;13.284;2022-10-22T10:00:53;10.30;;;9.23;;
12603;SDS011;6367;52.508;13.284;2022-10-22T10:03:24;12.60;;;11.30;;
12603;SDS011;6367;52.508;13.284;2022-10-22T10:05:54;10.90;;;9.80;;
12603;SDS011;6367;52.508;13.284;2022-10-22T10:08:21;9.87;;;8.30;;
12603;SDS011;6367;52.508;13.284;2022-10-22T10:13:53;11.93;;;10.77;;
12603;SDS011;6367;52.508;13.284;2022-10-22T10:16:32;9.80;;;8.87;;
12603;SDS011;6367;52.508;13.284;2022-10-22T10:19:16;11.70;;;10.50;;
12603;SDS011;6367;52.508;13.284;2022-10-22T10:22:13;11.30;;;10.30;;
12603;SDS011;6367;52.508;13.284;2022-10-22T10:30:57;9.40;;;8.60;;
12603;SDS011;6367;52.508;13.284;2022-10-22T10:37:23;11.57;;;10.47;;
12603;SDS011;6367;52.508;13.284;2022-10-22T10:39:36;11.27;;;10.10;;
12603;SDS011;6367;52.508;13.284;2022-10-22T10:44:59;10.93;;;9.83;;
12603;SDS011;6367;52.508;13.284;2022-10-22T10:53:26;12.67;;;11.47;;
12603;SDS011;6367;52.508;13.284;2022-10-22T10:59:10;12.77;;;11.57;;
12603;SDS011;6367;52.508;13.284;2022-10-22T11:07:24;13.17;;;11.20;;
12603;SDS011;6367;52.508;13.284;2022-10-22T11:10:01;11.47;;;10.37;;
12603;SDS011;6367;52.508;13.284;2022-10-22T11:12:33;13.00;;;11.73;;
12603;SDS011;6367;52.508;13.284;2022-10-22T11:17:36;13.40;;;11.63;;
12603;SDS011;6367;52.508;13.284;2022-10-22T11:20:11;11.70;;;9.67;;
12603;SDS011;6367;52.508;13.284;2022-10-22T11:22:40;11.80;;;10.60;;
12603;SDS011;6367;52.508;13.284;2022-10-22T11:25:18;10.40;;;9.40;;
12603;SDS011;6367;52.508;13.284;2022-10-22T11:27:50;12.10;;;10.80;;
12603;SDS011;6367;52.508;13.284;2022-10-22T11:30:22;10.13;;;9.20;;
12603;SDS011;6367;52.508;13.284;2022-10-22T11:32:54;11.47;;;10.37;;
12603;SDS011;6367;52.508;13.284;2022-10-22T11:35:25;11.70;;;10.50;;
12603;SDS011;6367;52.508;13.284;2022-10-22T11:37:54;12.37;;;11.27;;
12603;SDS011;6367;52.508;13.284;2022-10-22T11:43:24;12.73;;;9.37;;
12603;SDS011;6367;52.508;13.284;2022-10-22T11:46:02;10.03;;;9.00;;
12603;SDS011;6367;52.508;13.284;2022-10-22T11:49:03;10.23;;;9.20;;
12603;SDS011;6367;52.508;13.284;2022-10-22T11:51:33;9.73;;;8.47;;
12603;SDS011;6367;52.508;13.284;2022-10-22T11:54:46;9.50;;;8.20;;
12603;SDS011;6367;52.508;13.284;2022-10-22T11:59:43;9.30;;;8.47;;
12603;SDS011;6367;52.508;13.284;2022-10-22T12:02:44;8.60;;;7.80;;
12603;SDS011;6367;52.508;13.284;2022-10-22T12:07:56;8.77;;;7.87;;
12603;SDS011;6367;52.508;13.284;2022-10-22T12:10:27;8.60;;;7.90;;
12603;SDS011;6367;52.508;13.284;2022-10-22T12:13:21;8.17;;;7.27;;
12603;SDS011;6367;52.508;13.284;2022-10-22T12:15:52;7.13;;;6.43;;
12603;SDS011;6367;52.508;13.284;2022-10-22T12:18:24;5.90;;;5.30;;
12603;SDS011;6367;52.508;13.284;2022-10-22T12:20:54;5.90;;;5.37;;
12603;SDS011;6367;52.508;13.284;2022-10-22T12:23:20;6.57;;;5.97;;
12603;SDS011;6367;52.508;13.284;2022-10-22T12:25:58;6.70;;;5.40;;
12603;SDS011;6367;52.508;13.284;2022-10-22T12:28:23;5.83;;;4.20;;
12603;SDS011;6367;52.508;13.284;2022-10-22T12:30:49;6.27;;;5.27;;
12603;SDS011;6367;52.508;13.284;2022-10-22T12:33:19;7.00;;;5.20;;
12603;SDS011;6367;52.508;13.284;2022-10-22T12:35:46;5.50;;;4.93;;
12603;SDS011;6367;52.508;13.284;2022-10-22T12:38:16;5.23;;;4.73;;
12603;SDS011;6367;52.508;13.284;2022-10-22T12:40:46;5.27;;;4.40;;
12603;SDS011;6367;52.508;13.284;2022-10-22T12:43:15;4.33;;;3.93;;
12603;SDS011;6367;52.508;13.284;2022-10-22T12:45:43;4.73;;;4.30;;
12603;SDS011;6367;52.508;13.284;2022-10-22T12:48:18;3.90;;;3.60;;
12603;SDS011;6367;52.508;13.284;2022-10-22T12:50:46;4.80;;;3.50;;
12603;SDS011;6367;52.508;13.284;2022-10-22T12:53:37;4.17;;;3.87;;
12603;SDS011;6367;52.508;13.284;2022-10-22T12:56:11;5.73;;;4.10;;
12603;SDS011;6367;52.508;13.284;2022-10-22T13:01:05;4.60;;;3.43;;
12603;SDS011;6367;52.508;13.284;2022-10-22T13:03:32;6.50;;;3.77;;
12603;SDS011;6367;52.508;13.284;2022-10-22T13:06:35;4.33;;;3.83;;
12603;SDS011;6367;52.508;13.284;2022-10-22T13:11:36;4.17;;;3.80;;
12603;SDS011;6367;52.508;13.284;2022-10-22T13:14:05;4.97;;;3.53;;
12603;SDS011;6367;52.508;13.284;2022-10-22T13:17:09;3.87;;;3.10;;
12603;SDS011;6367;52.508;13.284;2022-10-22T13:24:51;3.80;;;2.70;;
12603;SDS011;6367;52.508;13.284;2022-10-22T13:27:17;5.53;;;3.33;;
12603;SDS011;6367;52.508;13.284;2022-10-22T13:29:43;3.40;;;3.13;;
12603;SDS011;6367;52.508;13.284;2022-10-22T13:32:47;3.63;;;2.30;;
12603;SDS011;6367;52.508;13.284;2022-10-22T13:35:04;3.93;;;3.03;;
12603;SDS011;6367;52.508;13.284;2022-10-22T13:37:30;2.87;;;2.67;;
12603;SDS011;6367;52.508;13.284;2022-10-22T13:39:58;6.80;;;3.20;;
12603;SDS011;6367;52.508;13.284;2022-10-22T13:42:23;4.37;;;2.70;;
12603;SDS011;6367;52.508;13.284;2022-10-22T13:44:49;4.20;;;2.90;;
12603;SDS011;6367;52.508;13.284;2022-10-22T13:47:25;3.53;;;2.77;;
12603;SDS011;6367;52.508;13.284;2022-10-22T13:49:53;3.83;;;2.70;;
12603;SDS011;6367;52.508;13.284;2022-10-22T13:52:35;5.40;;;2.90;;
12603;SDS011;6367;52.508;13.284;2022-10-22T13:55:14;2.50;;;2.30;;
12603;SDS011;6367;52.508;13.284;2022-10-22T13:57:42;2.90;;;2.70;;
12603;SDS011;6367;52.508;13.284;2022-10-22T14:00:18;2.50;;;2.30;;
12603;SDS011;6367;52.508;13.284;2022-10-22T14:02:46;3.00;;;2.40;;
12603;SDS011;6367;52.508;13.284;2022-10-22T14:05:12;4.00;;;2.70;;
12603;SDS011;6367;52.508;13.284;2022-10-22T14:07:40;3.67;;;2.53;;
12603;SDS011;6367;52.508;13.284;2022-10-22T14:10:12;4.40;;;2.40;;
12603;SDS011;6367;52.508;13.284;2022-10-22T14:12:47;5.97;;;2.97;;
12603;SDS011;6367;52.508;13.284;2022-10-22T14:15:14;3.10;;;2.80;;
12603;SDS011;6367;52.508;13.284;2022-10-22T14:17:42;4.23;;;2.80;;
12603;SDS011;6367;52.508;13.284;2022-10-22T14:20:17;3.93;;;2.70;;
12603;SDS011;6367;52.508;13.284;2022-10-22T14:22:45;4.43;;;2.70;;
12603;SDS011;6367;52.508;13.284;2022-10-22T14:25:16;3.60;;;2.80;;
12603;SDS011;6367;52.508;13.284;2022-10-22T14:27:44;5.60;;;2.63;;
12603;SDS011;6367;52.508;13.284;2022-10-22T14:30:13;4.30;;;2.73;;
12603;SDS011;6367;52.508;13.284;2022-10-22T14:32:42;5.80;;;3.07;;
12603;SDS011;6367;52.508;13.284;2022-10-22T14:35:11;3.97;;;2.73;;
12603;SDS011;6367;52.508;13.284;2022-10-22T14:37:38;4.10;;;3.03;;
12603;SDS011;6367;52.508;13.284;2022-10-22T14:40:05;2.30;;;1.93;;
12603;SDS011;6367;52.508;13.284;2022-10-22T14:42:32;2.90;;;2.60;;
12603;SDS011;6367;52.508;13.284;2022-10-22T14:45:02;4.90;;;3.50;;
12603;SDS011;6367;52.508;13.284;2022-10-22T14:47:28;4.70;;;2.60;;
12603;SDS011;6367;52.508;13.284;2022-10-22T14:49:54;4.93;;;2.97;;
12603;SDS011;6367;52.508;13.284;2022-10-22T14:52:19;5.07;;;2.90;;
12603;SDS011;6367;52.508;13.284;2022-10-22T14:54:45;3.20;;;2.50;;
12603;SDS011;6367;52.508;13.284;2022-10-22T14:57:12;2.67;;;2.47;;
12603;SDS011;6367;52.508;13.284;2022-10-22T14:59:38;3.33;;;2.80;;
12603;SDS011;6367;52.508;13.284;2022-10-22T15:02:05;3.40;;;2.50;;
12603;SDS011;6367;52.508;13.284;2022-10-22T15:04:30;3.43;;;2.87;;
12603;SDS011;6367;52.508;13.284;2022-10-22T15:06:56;5.40;;;3.00;;
12603;SDS011;6367;52.508;13.284;2022-10-22T15:09:23;4.00;;;3.40;;
12603;SDS011;6367;52.508;13.284;2022-10-22T15:11:49;3.43;;;2.80;;
12603;SDS011;6367;52.508;13.284;2022-10-22T15:14:15;4.40;;;3.73;;
12603;SDS011;6367;52.508;13.284;2022-10-22T15:16:41;4.73;;;3.23;;
12603;SDS011;6367;52.508;13.284;2022-10-22T15:19:06;4.40;;;3.13;;
12603;SDS011;6367;52.508;13.284;2022-10-22T15:21:32;3.90;;;3.60;;
12603;SDS011;6367;52.508;13.284;2022-10-22T15:23:57;3.70;;;3.23;;
12603;SDS011;6367;52.508;13.284;2022-10-22T15:26:24;3.57;;;3.07;;
12603;SDS011;6367;52.508;13.284;2022-10-22T15:28:50;4.90;;;2.87;;
12603;SDS011;6367;52.508;13.284;2022-10-22T15:31:15;3.73;;;2.93;;
12603;SDS011;6367;52.508;13.284;2022-10-22T15:34:09;4.23;;;2.90;;
12603;SDS011;6367;52.508;13.284;2022-10-22T15:36:34;3.57;;;2.93;;
12603;SDS011;6367;52.508;13.284;2022-10-22T15:39:04;2.67;;;2.47;;
12603;SDS011;6367;52.508;13.284;2022-10-22T15:41:32;3.60;;;3.00;;
12603;SDS011;6367;52.508;13.284;2022-10-22T15:43:57;4.27;;;3.07;;
12603;SDS011;6367;52.508;13.284;2022-10-22T15:46:23;4.20;;;2.70;;
12603;SDS011;6367;52.508;13.284;2022-10-22T15:48:51;4.57;;;3.30;;
12603;SDS011;6367;52.508;13.284;2022-10-22T15:51:18;3.60;;;3.17;;
12603;SDS011;6367;52.508;13.284;2022-10-22T15:53:54;4.43;;;2.77;;
12603;SDS011;6367;52.508;13.284;2022-10-22T15:56:21;3.50;;;2.87;;
12603;SDS011;6367;52.508;13.284;2022-10-22T15:58:51;3.40;;;2.73;;
12603;SDS011;6367;52.508;13.284;2022-10-22T16:01:21;3.60;;;2.83;;
12603;SDS011;6367;52.508;13.284;2022-10-22T16:03:48;5.40;;;3.30;;